Time;durP1;ratioP1;P1;durP2;ratioP2;P2;SDS_P1;SDS_P2;PMS_P1;PMS_P2;Temp;Humidity;BMP_temperature;BMP_pressure;BME280_temperature;BME280_humidity;BME280_pressure;Samples;Min_cycle;Max_cycle;Signal;HPM_P1;HPM_P2
2021/12/12 00:00:14;;;;;;;;;22.25;17.50;;;;;;;;5069201;27;45452;-41
2021/12/12 00:03:02;;;;;;;;;17.00;17.00;;;;;;;;5055573;28;45368;-41
2021/12/12 00:05:33;;;;;;;;;20.50;17.00;;;;;;;;5067562;28;45279;-41
2021/12/12 00:07:58;;;;;;;;;17.25;16.50;;;;;;;;5074787;27;45444;-41
2021/12/12 00:10:28;;;;;;;;;18.50;18.50;;;;;;;;5074625;27;45231;-42
2021/12/12 00:12:55;;;;;;;;;19.50;19.50;;;;;;;;5074957;27;45338;-41
2021/12/12 00:15:22;;;;;;;;;21.00;18.50;;;;;;;;5069430;27;46336;-41
2021/12/12 00:17:47;;;;;;;;;17.00;13.00;;;;;;;;5074800;27;45479;-41
2021/12/12 00:20:14;;;;;;;;;23.00;19.00;;;;;;;;5076239;27;45428;-42
2021/12/12 00:22:39;;;;;;;;;24.00;20.25;;;;;;;;5060773;28;45633;-40
2021/12/12 00:25:06;;;;;;;;;21.75;19.00;;;;;;;;5069436;27;46049;-40
2021/12/12 00:27:31;;;;;;;;;20.50;18.50;;;;;;;;5075113;27;45343;-41
2021/12/12 00:30:03;;;;;;;;;23.25;22.00;;;;;;;;5077477;28;45413;-42
2021/12/12 00:32:29;;;;;;;;;24.00;21.25;;;;;;;;5077362;27;45552;-41
2021/12/12 00:34:58;;;;;;;;;21.50;20.25;;;;;;;;5078357;27;47186;-41
2021/12/12 00:37:24;;;;;;;;;23.25;22.50;;;;;;;;5078837;28;45496;-42
2021/12/12 00:39:52;;;;;;;;;17.00;17.00;;;;;;;;5078917;28;45330;-40
2021/12/12 00:42:19;;;;;;;;;21.25;18.75;;;;;;;;5078191;28;45455;-41
2021/12/12 00:44:46;;;;;;;;;22.00;20.25;;;;;;;;5060966;27;46366;-42
2021/12/12 00:47:12;;;;;;;;;20.50;19.00;;;;;;;;5076291;28;45241;-41
2021/12/12 00:49:39;;;;;;;;;19.00;17.25;;;;;;;;5077913;28;45459;-41
2021/12/12 00:52:06;;;;;;;;;16.25;16.00;;;;;;;;5076860;28;45698;-40
2021/12/12 00:54:32;;;;;;;;;20.25;19.00;;;;;;;;5077507;27;46331;-41
2021/12/12 00:56:59;;;;;;;;;21.50;21.50;;;;;;;;5074615;27;45362;-40
2021/12/12 00:59:24;;;;;;;;;18.25;16.00;;;;;;;;5077973;27;45366;-40
2021/12/12 01:01:50;;;;;;;;;18.50;16.00;;;;;;;;5077967;28;45664;-41
2021/12/12 01:04:18;;;;;;;;;18.50;18.00;;;;;;;;5077841;27;45416;-41
2021/12/12 01:06:44;;;;;;;;;21.00;19.25;;;;;;;;5076586;28;45351;-41
2021/12/12 01:09:12;;;;;;;;;15.50;14.75;;;;;;;;5077717;28;45372;-41
2021/12/12 01:11:43;;;;;;;;;14.00;14.00;;;;;;;;5076303;27;45560;-41
2021/12/12 01:14:10;;;;;;;;;19.00;15.50;;;;;;;;5077686;27;45458;-41
2021/12/12 01:16:40;;;;;;;;;16.50;16.50;;;;;;;;5074766;27;45325;-41
2021/12/12 01:19:09;;;;;;;;;14.00;14.00;;;;;;;;5071975;28;45395;-41
2021/12/12 01:21:37;;;;;;;;;15.50;15.50;;;;;;;;5077322;28;45397;-41
2021/12/12 01:24:07;;;;;;;;;16.50;15.75;;;;;;;;5074512;27;45701;-41
2021/12/12 01:26:33;;;;;;;;;17.25;16.50;;;;;;;;5077174;27;45521;-41
2021/12/12 01:28:59;;;;;;;;;16.75;16.75;;;;;;;;5075704;27;45563;-41
2021/12/12 01:31:28;;;;;;;;;22.00;17.25;;;;;;;;5075163;28;45612;-41
2021/12/12 01:33:59;;;;;;;;;15.25;10.75;;;;;;;;5073521;27;45462;-41
2021/12/12 01:36:27;;;;;;;;;16.00;15.25;;;;;;;;5077108;28;45392;-40
2021/12/12 01:38:56;;;;;;;;;15.25;15.25;;;;;;;;5076314;27;45486;-41
2021/12/12 01:41:34;;;;;;;;;12.00;11.75;;;;;;;;5077082;28;45502;-41
2021/12/12 01:44:03;;;;;;;;;16.75;15.00;;;;;;;;5075170;27;46757;-41
2021/12/12 01:46:30;;;;;;;;;13.50;12.25;;;;;;;;5075496;27;45543;-41
2021/12/12 01:49:03;;;;;;;;;15.00;15.00;;;;;;;;5075809;27;45393;-41
2021/12/12 01:51:29;;;;;;;;;15.75;13.75;;;;;;;;5074818;28;45477;-42
2021/12/12 01:53:56;;;;;;;;;21.50;17.50;;;;;;;;5076786;28;46458;-41
2021/12/12 01:56:24;;;;;;;;;15.75;15.75;;;;;;;;5076725;28;45532;-41
2021/12/12 01:58:54;;;;;;;;;15.25;15.25;;;;;;;;5077044;27;45500;-41
2021/12/12 02:01:25;;;;;;;;;14.00;14.00;;;;;;;;5073409;27;45624;-42
2021/12/12 02:03:55;;;;;;;;;13.00;13.00;;;;;;;;5076522;27;45468;-42
2021/12/12 02:06:22;;;;;;;;;12.25;11.00;;;;;;;;5077301;27;45284;-41
2021/12/12 02:08:47;;;;;;;;;12.00;12.00;;;;;;;;5076371;27;45428;-42
2021/12/12 02:11:19;;;;;;;;;13.25;13.25;;;;;;;;5076596;28;45483;-42
2021/12/12 02:13:46;;;;;;;;;13.25;12.25;;;;;;;;5075936;27;47162;-41
2021/12/12 02:16:12;;;;;;;;;11.00;11.00;;;;;;;;5071925;28;45497;-41
2021/12/12 02:18:40;;;;;;;;;9.50;9.50;;;;;;;;5075412;27;46183;-41
2021/12/12 02:21:19;;;;;;;;;14.75;13.25;;;;;;;;5074686;27;45374;-42
2021/12/12 02:24:34;;;;;;;;;12.00;12.00;;;;;;;;5074979;28;46338;-42
2021/12/12 02:35:21;;;;;;;;;12.00;12.00;;;;;;;;5074270;27;45492;-41
2021/12/12 02:37:48;;;;;;;;;8.25;8.25;;;;;;;;5075168;27;45435;-41
2021/12/12 02:40:16;;;;;;;;;10.75;10.75;;;;;;;;5076206;27;45436;-41
2021/12/12 02:42:42;;;;;;;;;10.75;10.75;;;;;;;;5075050;27;45356;-41
2021/12/12 02:45:08;;;;;;;;;9.00;9.00;;;;;;;;5072667;27;45415;-41
2021/12/12 02:47:35;;;;;;;;;11.25;9.25;;;;;;;;5075596;27;45325;-41
2021/12/12 02:50:20;;;;;;;;;8.25;8.25;;;;;;;;5074977;27;45516;-41
2021/12/12 02:52:49;;;;;;;;;10.25;10.25;;;;;;;;5074538;27;45662;-41
2021/12/12 02:55:35;;;;;;;;;10.50;10.50;;;;;;;;5075779;27;46247;-41
2021/12/12 02:58:03;;;;;;;;;11.00;8.00;;;;;;;;5075678;27;45255;-41
2021/12/12 03:00:31;;;;;;;;;11.00;7.00;;;;;;;;5075818;28;45352;-41
2021/12/12 03:02:57;;;;;;;;;9.00;9.00;;;;;;;;5075827;27;45393;-41
2021/12/12 03:05:23;;;;;;;;;9.75;7.75;;;;;;;;5075922;28;46139;-41
2021/12/12 03:07:49;;;;;;;;;11.50;11.25;;;;;;;;5074396;27;45503;-41
2021/12/12 03:10:16;;;;;;;;;8.25;7.00;;;;;;;;5075815;27;45888;-40
2021/12/12 03:12:42;;;;;;;;;8.00;8.00;;;;;;;;5076019;27;45282;-41
2021/12/12 03:15:11;;;;;;;;;8.00;8.00;;;;;;;;5075216;27;45729;-41
2021/12/12 03:17:36;;;;;;;;;9.75;8.00;;;;;;;;5075317;28;45467;-41
2021/12/12 03:20:10;;;;;;;;;12.00;11.75;;;;;;;;5091097;27;45288;-40
2021/12/12 03:22:35;;;;;;;;;8.00;8.00;;;;;;;;5073478;28;45485;-40
2021/12/12 03:25:00;;;;;;;;;8.00;8.00;;;;;;;;5075756;28;45534;-41
2021/12/12 03:27:26;;;;;;;;;7.50;7.00;;;;;;;;5075676;27;45374;-40
2021/12/12 03:29:52;;;;;;;;;8.00;8.00;;;;;;;;5075360;27;45507;-40
2021/12/12 03:32:19;;;;;;;;;8.25;6.00;;;;;;;;5075576;28;45374;-41
2021/12/12 03:34:46;;;;;;;;;8.00;7.00;;;;;;;;5074949;27;47139;-41
2021/12/12 03:37:13;;;;;;;;;7.50;7.50;;;;;;;;5075403;27;45566;-41
2021/12/12 03:39:40;;;;;;;;;8.00;8.00;;;;;;;;5074956;27;45284;-41
2021/12/12 03:42:16;;;;;;;;;7.00;7.00;;;;;;;;5074177;27;45529;-42
2021/12/12 03:44:42;;;;;;;;;7.00;7.00;;;;;;;;5066050;27;45441;-42
2021/12/12 03:47:12;;;;;;;;;8.50;7.50;;;;;;;;5075084;27;45370;-42
2021/12/12 03:49:37;;;;;;;;;7.25;7.25;;;;;;;;5075988;28;45277;-41
2021/12/12 03:52:04;;;;;;;;;11.75;9.25;;;;;;;;5075404;27;45555;-42
2021/12/12 03:54:30;;;;;;;;;6.75;6.00;;;;;;;;5079813;28;46791;-41
2021/12/12 03:56:55;;;;;;;;;8.00;8.00;;;;;;;;5076039;27;45412;-41
2021/12/12 03:59:20;;;;;;;;;8.75;7.75;;;;;;;;5059307;28;45416;-41
2021/12/12 04:01:47;;;;;;;;;11.75;9.25;;;;;;;;5072911;28;45479;-41
2021/12/12 04:04:17;;;;;;;;;13.25;10.00;;;;;;;;5079143;27;46083;-40
2021/12/12 04:06:43;;;;;;;;;12.50;11.25;;;;;;;;5078976;27;45269;-41
2021/12/12 04:09:10;;;;;;;;;10.25;9.25;;;;;;;;5071950;27;45173;-41
2021/12/12 04:11:37;;;;;;;;;11.75;10.50;;;;;;;;5075769;28;45543;-41
2021/12/12 04:14:03;;;;;;;;;9.75;9.75;;;;;;;;5078333;28;46893;-40
2021/12/12 04:16:30;;;;;;;;;13.75;12.00;;;;;;;;5077200;28;45336;-41
2021/12/12 04:18:56;;;;;;;;;10.00;10.00;;;;;;;;5072738;27;45367;-41
2021/12/12 04:21:24;;;;;;;;;9.25;8.00;;;;;;;;5061679;28;45451;-41
2021/12/12 04:23:49;;;;;;;;;12.25;11.00;;;;;;;;5058201;28;46228;-41
2021/12/12 04:26:23;;;;;;;;;11.25;11.00;;;;;;;;5078292;28;45365;-41
2021/12/12 04:29:00;;;;;;;;;11.75;11.75;;;;;;;;5079224;27;45249;-41
2021/12/12 04:31:25;;;;;;;;;13.00;11.25;;;;;;;;5077814;27;45297;-41
2021/12/12 04:33:51;;;;;;;;;13.00;11.75;;;;;;;;5072868;27;46328;-41
2021/12/12 04:36:16;;;;;;;;;12.50;10.75;;;;;;;;5078230;27;45291;-41
2021/12/12 04:38:42;;;;;;;;;12.75;11.75;;;;;;;;5078680;28;45469;-41
2021/12/12 04:41:07;;;;;;;;;15.50;11.00;;;;;;;;5077889;27;45376;-42
2021/12/12 04:43:32;;;;;;;;;13.00;13.00;;;;;;;;5078916;27;46132;-41
2021/12/12 04:46:08;;;;;;;;;15.50;13.75;;;;;;;;5077241;27;45463;-41
2021/12/12 04:51:29;;;;;;;;;15.50;15.25;;;;;;;;5077553;27;45378;-41
2021/12/12 04:53:58;;;;;;;;;17.00;15.50;;;;;;;;5078532;28;46893;-41
2021/12/12 04:56:31;;;;;;;;;14.25;14.25;;;;;;;;5077893;27;46116;-41
2021/12/12 04:59:15;;;;;;;;;17.50;15.75;;;;;;;;5071820;28;45342;-41
2021/12/12 05:01:44;;;;;;;;;21.25;16.25;;;;;;;;5072113;28;45522;-41
2021/12/12 05:04:18;;;;;;;;;16.25;14.25;;;;;;;;5077319;28;46290;-41
2021/12/12 05:06:45;;;;;;;;;17.00;17.00;;;;;;;;5077897;27;45327;-40
2021/12/12 05:09:29;;;;;;;;;16.25;14.25;;;;;;;;5077237;28;45526;-40
2021/12/12 05:11:57;;;;;;;;;17.75;16.75;;;;;;;;5078330;28;45353;-40
2021/12/12 05:14:25;;;;;;;;;13.50;12.00;;;;;;;;5078341;27;46142;-41
2021/12/12 05:16:53;;;;;;;;;17.75;16.75;;;;;;;;5077068;27;45258;-41
2021/12/12 05:19:22;;;;;;;;;18.00;17.00;;;;;;;;5068017;28;45249;-40
2021/12/12 05:21:49;;;;;;;;;17.75;13.25;;;;;;;;5076625;28;45512;-41
2021/12/12 05:24:16;;;;;;;;;14.00;14.00;;;;;;;;5078377;27;46866;-41
2021/12/12 05:26:41;;;;;;;;;14.75;13.50;;;;;;;;5077731;27;45464;-41
2021/12/12 05:29:19;;;;;;;;;19.40;15.40;;;;;;;;5078142;27;45515;-41
2021/12/12 05:31:50;;;;;;;;;14.00;14.00;;;;;;;;5077556;28;45423;-41
2021/12/12 05:34:16;;;;;;;;;14.50;13.00;;;;;;;;5074023;28;46310;-40
2021/12/12 05:36:42;;;;;;;;;19.00;18.25;;;;;;;;5077547;27;45421;-41
2021/12/12 05:39:07;;;;;;;;;18.25;13.50;;;;;;;;5077864;28;45358;-41
2021/12/12 05:41:33;;;;;;;;;16.75;15.50;;;;;;;;5077293;27;45468;-41
2021/12/12 05:43:59;;;;;;;;;13.50;13.50;;;;;;;;5076991;28;46418;-41
2021/12/12 05:46:25;;;;;;;;;14.00;14.00;;;;;;;;5064563;27;45562;-41
2021/12/12 05:48:51;;;;;;;;;18.25;17.00;;;;;;;;5057643;28;45337;-41
2021/12/12 05:51:16;;;;;;;;;16.25;15.25;;;;;;;;5057562;28;45246;-40
2021/12/12 05:53:42;;;;;;;;;16.75;15.25;;;;;;;;5056689;28;45472;-40
2021/12/12 05:56:07;;;;;;;;;16.50;12.50;;;;;;;;5075796;27;45333;-40
2021/12/12 05:58:33;;;;;;;;;16.25;15.75;;;;;;;;5072924;28;45295;-41
2021/12/12 06:01:00;;;;;;;;;17.25;15.00;;;;;;;;5080923;27;45341;-41
2021/12/12 06:03:29;;;;;;;;;13.25;13.25;;;;;;;;5077070;27;46399;-41
2021/12/12 06:05:56;;;;;;;;;18.00;14.25;;;;;;;;5076971;28;45543;-40
2021/12/12 06:08:22;;;;;;;;;16.25;14.25;;;;;;;;5061792;27;45410;-40
2021/12/12 06:10:48;;;;;;;;;12.75;12.75;;;;;;;;5056020;28;45372;-41
2021/12/12 06:13:15;;;;;;;;;15.50;14.00;;;;;;;;5074012;27;45404;-40
2021/12/12 06:15:41;;;;;;;;;12.50;12.00;;;;;;;;5066212;28;45287;-41
2021/12/12 06:18:07;;;;;;;;;13.00;13.00;;;;;;;;5076924;27;45222;-41
2021/12/12 06:20:32;;;;;;;;;12.75;12.25;;;;;;;;5076823;28;45527;-41
2021/12/12 06:22:58;;;;;;;;;18.75;16.75;;;;;;;;5077440;27;45335;-41
2021/12/12 06:25:24;;;;;;;;;12.00;12.00;;;;;;;;5076984;27;45226;-41
2021/12/12 06:27:50;;;;;;;;;13.50;12.50;;;;;;;;5077214;27;45223;-40
2021/12/12 06:30:17;;;;;;;;;19.25;18.00;;;;;;;;5076668;28;45330;-40
2021/12/12 06:32:43;;;;;;;;;14.00;13.00;;;;;;;;5064726;27;46841;-41
2021/12/12 06:35:09;;;;;;;;;15.00;14.75;;;;;;;;5069252;28;45456;-41
2021/12/12 06:37:35;;;;;;;;;13.25;13.25;;;;;;;;5076735;28;45412;-40
2021/12/12 06:40:01;;;;;;;;;13.00;13.00;;;;;;;;5075901;28;45256;-40
2021/12/12 06:42:26;;;;;;;;;14.25;11.75;;;;;;;;5068192;28;47154;-41
2021/12/12 06:44:52;;;;;;;;;13.00;11.25;;;;;;;;5066403;28;45443;-41
2021/12/12 06:47:18;;;;;;;;;12.50;11.00;;;;;;;;5075933;27;45225;-40
2021/12/12 06:49:44;;;;;;;;;13.50;13.50;;;;;;;;5076979;27;45249;-42
2021/12/12 06:52:10;;;;;;;;;13.50;12.00;;;;;;;;5076712;27;45282;-42
2021/12/12 06:54:35;;;;;;;;;14.50;13.50;;;;;;;;5076604;27;45421;-42
2021/12/12 06:57:03;;;;;;;;;12.25;11.25;;;;;;;;5076597;28;45318;-41
2021/12/12 06:59:29;;;;;;;;;11.75;11.75;;;;;;;;5076411;27;45484;-41
2021/12/12 07:01:55;;;;;;;;;12.50;11.50;;;;;;;;5076521;27;46468;-42
2021/12/12 07:04:21;;;;;;;;;15.00;12.75;;;;;;;;5084503;27;45421;-40
2021/12/12 07:06:47;;;;;;;;;13.00;12.00;;;;;;;;5097416;27;45460;-40
2021/12/12 07:09:13;;;;;;;;;11.25;10.25;;;;;;;;5096430;27;45336;-40
2021/12/12 07:11:40;;;;;;;;;12.75;12.00;;;;;;;;5079476;27;46158;-41
2021/12/12 07:14:07;;;;;;;;;11.00;11.00;;;;;;;;5076168;28;45378;-42
2021/12/12 07:16:33;;;;;;;;;9.00;9.00;;;;;;;;5075799;27;45329;-41
2021/12/12 07:18:59;;;;;;;;;11.50;9.50;;;;;;;;5070668;27;45640;-41
2021/12/12 07:21:25;;;;;;;;;9.75;9.75;;;;;;;;5074461;28;46371;-41
2021/12/12 07:23:50;;;;;;;;;12.75;10.50;;;;;;;;5076359;27;45250;-42
2021/12/12 07:26:16;;;;;;;;;13.00;13.00;;;;;;;;5076260;27;45244;-41
2021/12/12 07:28:42;;;;;;;;;12.00;11.00;;;;;;;;5075041;27;45470;-41
2021/12/12 07:31:10;;;;;;;;;15.00;10.50;;;;;;;;5075238;27;46853;-41
2021/12/12 07:33:36;;;;;;;;;14.75;11.50;;;;;;;;5076293;27;45341;-41
2021/12/12 07:36:03;;;;;;;;;12.75;12.75;;;;;;;;5074374;28;45459;-42
2021/12/12 07:38:30;;;;;;;;;8.50;8.50;;;;;;;;5075844;27;45443;-42
2021/12/12 07:40:57;;;;;;;;;14.75;10.25;;;;;;;;5071267;27;47073;-42
2021/12/12 07:43:22;;;;;;;;;12.50;11.50;;;;;;;;5074701;27;46204;-42
2021/12/12 07:45:48;;;;;;;;;12.00;11.00;;;;;;;;5075690;27;45333;-42
2021/12/12 07:48:14;;;;;;;;;12.00;10.75;;;;;;;;5068390;27;45555;-43
2021/12/12 07:50:40;;;;;;;;;10.75;10.75;;;;;;;;5057315;28;45746;-44
2021/12/12 07:53:06;;;;;;;;;9.25;8.25;;;;;;;;5062031;27;45585;-44
2021/12/12 07:55:32;;;;;;;;;13.25;13.00;;;;;;;;5060720;28;45452;-43
2021/12/12 07:57:57;;;;;;;;;12.75;10.25;;;;;;;;5071118;28;45706;-44
2021/12/12 08:00:25;;;;;;;;;14.75;11.75;;;;;;;;5075697;27;46260;-45
2021/12/12 08:02:51;;;;;;;;;11.50;11.50;;;;;;;;5074496;27;45747;-44
2021/12/12 08:05:17;;;;;;;;;12.25;10.75;;;;;;;;5068956;27;45303;-42
2021/12/12 08:07:43;;;;;;;;;11.75;11.75;;;;;;;;5055410;28;45232;-42
2021/12/12 08:10:09;;;;;;;;;11.25;11.25;;;;;;;;5061888;27;46337;-43
2021/12/12 08:12:35;;;;;;;;;11.00;10.00;;;;;;;;5075346;28;45238;-44
2021/12/12 08:15:07;;;;;;;;;9.50;9.50;;;;;;;;5075166;27;45428;-43
2021/12/12 08:17:32;;;;;;;;;9.00;9.00;;;;;;;;5065992;28;45396;-43
2021/12/12 08:19:58;;;;;;;;;10.00;10.00;;;;;;;;5069923;28;45443;-43
2021/12/12 08:22:24;;;;;;;;;13.75;9.75;;;;;;;;5075693;27;45260;-43
2021/12/12 08:24:50;;;;;;;;;12.50;11.50;;;;;;;;5073527;27;45541;-43
2021/12/12 08:27:15;;;;;;;;;10.00;8.50;;;;;;;;5057755;28;45628;-42
2021/12/12 08:29:41;;;;;;;;;9.75;9.00;;;;;;;;5075382;27;45530;-42
2021/12/12 08:32:08;;;;;;;;;9.75;9.75;;;;;;;;5074921;28;45503;-45
2021/12/12 08:34:34;;;;;;;;;9.75;8.75;;;;;;;;5075602;27;45381;-49
2021/12/12 08:36:59;;;;;;;;;20.50;15.50;;;;;;;;5074952;28;45412;-48
2021/12/12 08:39:27;;;;;;;;;10.00;10.00;;;;;;;;5064523;27;45984;-47
2021/12/12 08:41:52;;;;;;;;;12.00;9.50;;;;;;;;5074355;27;45475;-54
2021/12/12 08:44:18;;;;;;;;;11.25;9.50;;;;;;;;5076602;27;45548;-57
2021/12/12 08:46:45;;;;;;;;;11.75;9.50;;;;;;;;5077846;27;45552;-52
2021/12/12 08:49:12;;;;;;;;;11.00;10.25;;;;;;;;5077148;27;45471;-49
2021/12/12 08:51:40;;;;;;;;;10.00;10.00;;;;;;;;5072478;27;45454;-49
2021/12/12 08:54:14;;;;;;;;;6.25;6.25;;;;;;;;5076639;27;45487;-54
2021/12/12 08:56:43;;;;;;;;;8.50;6.25;;;;;;;;5077854;27;45569;-55
2021/12/12 08:59:16;;;;;;;;;6.75;6.75;;;;;;;;5075908;27;46072;-52
2021/12/12 09:01:42;;;;;;;;;11.50;11.00;;;;;;;;5077200;27;45259;-51
2021/12/12 09:04:09;;;;;;;;;12.25;9.00;;;;;;;;5078289;27;45259;-57
2021/12/12 09:06:38;;;;;;;;;10.33;9.00;;;;;;;;5078656;27;45316;-59
2021/12/12 09:09:12;;;;;;;;;9.00;9.00;;;;;;;;5077599;27;45428;-56
2021/12/12 09:11:52;;;;;;;;;8.50;8.25;;;;;;;;5076188;27;45445;-57
2021/12/12 09:14:37;;;;;;;;;8.75;8.75;;;;;;;;5076780;27;45409;-56
2021/12/12 09:17:03;;;;;;;;;9.00;8.75;;;;;;;;5076896;27;45455;-52
2021/12/12 09:19:32;;;;;;;;;7.00;7.00;;;;;;;;5076429;28;45564;-52
2021/12/12 09:22:08;;;;;;;;;10.33;9.00;;;;;;;;5077185;27;45427;-49
2021/12/12 09:24:44;;;;;;;;;8.50;8.00;;;;;;;;5077899;27;45438;-52
2021/12/12 09:27:11;;;;;;;;;8.67;8.67;;;;;;;;5077420;27;45423;-58
2021/12/12 09:29:39;;;;;;;;;9.00;9.00;;;;;;;;5070654;27;45417;-49
2021/12/12 09:32:04;;;;;;;;;7.67;7.67;;;;;;;;5076434;27;45312;-50
2021/12/12 09:34:59;;;;;;;;;9.00;7.67;;;;;;;;5078024;28;45226;-49
2021/12/12 09:37:34;;;;;;;;;8.67;8.67;;;;;;;;5068238;28;45477;-49
2021/12/12 09:40:05;;;;;;;;;7.67;7.67;;;;;;;;5068705;27;45531;-50
2021/12/12 09:42:40;;;;;;;;;11.00;8.67;;;;;;;;5059581;28;45458;-49
2021/12/12 09:45:26;;;;;;;;;6.00;6.00;;;;;;;;5076402;27;45390;-54
2021/12/12 09:53:46;;;;;;;;;8.00;6.33;;;;;;;;5076531;27;45453;-50
2021/12/12 09:56:18;;;;;;;;;7.00;7.00;;;;;;;;5076872;27;45421;-50
2021/12/12 09:58:55;;;;;;;;;7.67;7.67;;;;;;;;5076871;28;45442;-48
2021/12/12 10:01:27;;;;;;;;;9.00;7.67;;;;;;;;5075051;27;46646;-52
2021/12/12 10:04:11;;;;;;;;;11.00;7.00;;;;;;;;5076517;28;45279;-52
2021/12/12 10:06:49;;;;;;;;;11.33;10.00;;;;;;;;5076758;27;45274;-51
2021/12/12 10:09:16;;;;;;;;;12.00;12.00;;;;;;;;5076730;27;45314;-57
2021/12/12 10:12:00;;;;;;;;;9.67;9.67;;;;;;;;5076513;28;46318;-55
2021/12/12 10:14:28;;;;;;;;;16.33;13.00;;;;;;;;5075468;28;45331;-47
2021/12/12 10:16:56;;;;;;;;;13.00;10.00;;;;;;;;5070816;27;45512;-46
2021/12/12 10:19:35;;;;;;;;;11.67;11.67;;;;;;;;5064005;28;45537;-47
2021/12/12 10:22:00;;;;;;;;;12.00;10.00;;;;;;;;5061310;28;46500;-46
2021/12/12 10:24:39;;;;;;;;;13.00;9.00;;;;;;;;5073016;28;45344;-47
2021/12/12 10:27:07;;;;;;;;;11.67;11.67;;;;;;;;5076383;27;45432;-46
2021/12/12 10:29:58;;;;;;;;;10.67;9.00;;;;;;;;5076480;27;45624;-45
2021/12/12 10:32:27;;;;;;;;;9.00;9.00;;;;;;;;5059931;27;46122;-45
2021/12/12 10:34:59;;;;;;;;;12.33;12.33;;;;;;;;5082082;27;45441;-55
2021/12/12 10:37:27;;;;;;;;;9.67;9.00;;;;;;;;5081744;27;45370;-55
2021/12/12 10:39:54;;;;;;;;;7.33;7.33;;;;;;;;5076221;28;45426;-53
2021/12/12 10:42:21;;;;;;;;;8.67;8.67;;;;;;;;5075167;27;46909;-51
2021/12/12 10:44:55;;;;;;;;;12.33;9.67;;;;;;;;5075452;27;45442;-50
2021/12/12 10:47:30;;;;;;;;;7.33;7.33;;;;;;;;5074885;27;45295;-49
2021/12/12 10:49:55;;;;;;;;;13.00;11.67;;;;;;;;5071038;28;45621;-49
2021/12/12 10:52:30;;;;;;;;;11.75;11.75;;;;;;;;5075062;27;45480;-50
2021/12/12 10:54:58;;;;;;;;;12.00;10.00;;;;;;;;5074761;27;45509;-49
2021/12/12 10:57:28;;;;;;;;;10.33;10.33;;;;;;;;5076237;28;45449;-49
2021/12/12 11:00:22;;;;;;;;;13.00;13.00;;;;;;;;5073341;27;45475;-49
2021/12/12 11:02:47;;;;;;;;;10.67;9.33;;;;;;;;5069688;28;45480;-52
2021/12/12 11:05:16;;;;;;;;;11.00;10.00;;;;;;;;5073299;27;45436;-49
2021/12/12 11:07:45;;;;;;;;;13.00;9.00;;;;;;;;5075998;28;45415;-51
2021/12/12 11:10:28;;;;;;;;;10.33;10.00;;;;;;;;5074828;27;45385;-42
2021/12/12 11:12:53;;;;;;;;;13.67;11.67;;;;;;;;5072417;27;45477;-46
2021/12/12 11:15:27;;;;;;;;;12.33;12.33;;;;;;;;5073863;27;45507;-47
2021/12/12 11:17:52;;;;;;;;;11.33;10.00;;;;;;;;5074235;28;45413;-45
2021/12/12 11:20:17;;;;;;;;;12.00;12.00;;;;;;;;5074847;27;45350;-47
2021/12/12 11:22:45;;;;;;;;;14.33;13.00;;;;;;;;5074446;28;45405;-46
2021/12/12 11:25:17;;;;;;;;;14.50;10.00;;;;;;;;5076349;28;45298;-47
2021/12/12 11:27:45;;;;;;;;;12.67;10.00;;;;;;;;5075879;27;45460;-46
2021/12/12 11:30:13;;;;;;;;;14.00;11.67;;;;;;;;5074012;27;45342;-49
2021/12/12 11:32:39;;;;;;;;;13.33;11.33;;;;;;;;5071599;27;46395;-50
2021/12/12 11:35:06;;;;;;;;;13.00;12.67;;;;;;;;5075622;27;45286;-52
2021/12/12 11:37:36;;;;;;;;;11.67;11.67;;;;;;;;5074081;28;45436;-48
2021/12/12 11:40:02;;;;;;;;;11.67;11.33;;;;;;;;5075776;28;45451;-48
2021/12/12 11:42:27;;;;;;;;;12.33;12.00;;;;;;;;5074295;27;46070;-50
2021/12/12 11:44:52;;;;;;;;;10.33;10.33;;;;;;;;5075201;27;45328;-49
2021/12/12 11:47:20;;;;;;;;;14.75;14.75;;;;;;;;5075380;27;45417;-52
2021/12/12 11:49:50;;;;;;;;;13.00;11.00;;;;;;;;5077083;27;45251;-45
2021/12/12 11:52:19;;;;;;;;;12.00;10.33;;;;;;;;5090079;27;45483;-51
2021/12/12 11:54:54;;;;;;;;;13.00;13.00;;;;;;;;5074741;28;45468;-46
2021/12/12 11:57:28;;;;;;;;;11.33;10.67;;;;;;;;5074165;28;45262;-52
2021/12/12 12:00:06;;;;;;;;;12.67;12.67;;;;;;;;5074726;27;45344;-51
2021/12/12 12:02:37;;;;;;;;;15.00;11.33;;;;;;;;5073710;27;46089;-51
2021/12/12 12:05:02;;;;;;;;;10.00;9.00;;;;;;;;5074356;28;45583;-51
2021/12/12 12:07:30;;;;;;;;;14.75;13.50;;;;;;;;5071800;27;45544;-49
2021/12/12 12:10:14;;;;;;;;;11.33;10.33;;;;;;;;5070581;28;45615;-44
2021/12/12 12:12:44;;;;;;;;;10.67;10.67;;;;;;;;5069913;27;45565;-47
2021/12/12 12:15:27;;;;;;;;;9.00;9.00;;;;;;;;5075232;27;45493;-47
2021/12/12 12:18:04;;;;;;;;;14.00;11.00;;;;;;;;5072425;27;45574;-47
2021/12/12 12:20:32;;;;;;;;;10.67;10.33;;;;;;;;5075379;27;45576;-47
2021/12/12 12:23:00;;;;;;;;;10.00;10.00;;;;;;;;5074427;27;45558;-46
2021/12/12 12:28:23;;;;;;;;;12.00;12.00;;;;;;;;5075356;27;45454;-43
2021/12/12 12:31:00;;;;;;;;;10.00;10.00;;;;;;;;5075107;27;45683;-44
2021/12/12 12:34:03;;;;;;;;;8.67;8.67;;;;;;;;5074850;27;45599;-46
2021/12/12 12:36:35;;;;;;;;;11.00;11.00;;;;;;;;5075464;27;45563;-43
2021/12/12 12:39:19;;;;;;;;;10.67;9.00;;;;;;;;5075101;28;45547;-47
2021/12/12 12:42:02;;;;;;;;;13.67;11.67;;;;;;;;5074204;27;45563;-45
2021/12/12 12:44:28;;;;;;;;;15.33;15.33;;;;;;;;5074016;27;46340;-45
2021/12/12 12:47:12;;;;;;;;;11.67;11.67;;;;;;;;5075747;27;45386;-45
2021/12/12 12:49:55;;;;;;;;;12.33;11.00;;;;;;;;5073002;27;45623;-45
2021/12/12 12:52:38;;;;;;;;;16.67;14.00;;;;;;;;5076642;28;45763;-47
2021/12/12 12:55:18;;;;;;;;;11.00;10.00;;;;;;;;5073810;27;46306;-46
2021/12/12 12:57:45;;;;;;;;;8.00;7.00;;;;;;;;5073988;27;45464;-53
2021/12/12 13:00:15;;;;;;;;;8.00;8.00;;;;;;;;5074687;27;45606;-49
2021/12/12 13:02:59;;;;;;;;;5.00;4.67;;;;;;;;5072957;27;45551;-52
2021/12/12 13:05:48;;;;;;;;;8.67;7.67;;;;;;;;5074276;27;45481;-51
2021/12/12 13:08:28;;;;;;;;;9.00;8.33;;;;;;;;5073939;28;45746;-50
2021/12/12 13:10:57;;;;;;;;;7.50;7.00;;;;;;;;5074418;27;45819;-53
2021/12/12 13:13:30;;;;;;;;;9.00;9.00;;;;;;;;5074728;28;45298;-48
2021/12/12 13:16:14;;;;;;;;;9.33;7.67;;;;;;;;5075041;28;47526;-52
2021/12/12 13:18:44;;;;;;;;;8.67;8.67;;;;;;;;5073526;27;45544;-52
2021/12/12 13:21:18;;;;;;;;;10.33;9.33;;;;;;;;5073401;27;47287;-51
2021/12/12 13:23:53;;;;;;;;;9.00;8.00;;;;;;;;5073835;28;45553;-50
2021/12/12 13:26:26;;;;;;;;;15.00;12.00;;;;;;;;5072673;27;47732;-53
2021/12/12 13:29:16;;;;;;;;;8.00;8.00;;;;;;;;5073574;28;45423;-50
2021/12/12 13:31:52;;;;;;;;;10.00;9.00;;;;;;;;5074422;27;45555;-52
2021/12/12 13:34:21;;;;;;;;;14.33;11.67;;;;;;;;5074270;28;45501;-48
2021/12/12 13:36:56;;;;;;;;;10.00;10.00;;;;;;;;5070321;27;45967;-48
2021/12/12 13:39:24;;;;;;;;;8.67;8.67;;;;;;;;5074363;27;45544;-53
2021/12/12 13:41:59;;;;;;;;;10.00;10.00;;;;;;;;5073203;27;45554;-47
2021/12/12 13:44:33;;;;;;;;;10.33;10.33;;;;;;;;5072359;27;45594;-52
2021/12/12 13:47:18;;;;;;;;;9.67;9.67;;;;;;;;5073126;27;46117;-47
2021/12/12 13:49:46;;;;;;;;;9.00;9.00;;;;;;;;5071085;27;45667;-49
2021/12/12 13:52:14;;;;;;;;;12.33;10.67;;;;;;;;5072609;27;45583;-50
2021/12/12 13:54:49;;;;;;;;;9.33;9.33;;;;;;;;5072783;27;45787;-52
2021/12/12 13:57:14;;;;;;;;;10.00;10.00;;;;;;;;5073388;27;45592;-50
2021/12/12 14:00:15;;;;;;;;;12.67;11.00;;;;;;;;5073908;27;45556;-49
2021/12/12 14:02:42;;;;;;;;;10.00;10.00;;;;;;;;5011638;28;45494;-53
2021/12/12 14:05:07;;;;;;;;;7.00;7.00;;;;;;;;5060195;27;45621;-50
2021/12/12 14:07:37;;;;;;;;;9.00;9.00;;;;;;;;5072990;27;46068;-49
2021/12/12 14:10:05;;;;;;;;;9.67;9.67;;;;;;;;5073907;28;45566;-49
2021/12/12 14:12:32;;;;;;;;;9.33;8.00;;;;;;;;5072659;27;45564;-47
2021/12/12 14:15:00;;;;;;;;;8.33;8.33;;;;;;;;5070649;27;45518;-47
2021/12/12 14:17:27;;;;;;;;;9.00;9.00;;;;;;;;5068991;28;45479;-54
2021/12/12 14:19:58;;;;;;;;;7.67;7.67;;;;;;;;5072152;27;45554;-48
2021/12/12 14:22:23;;;;;;;;;12.00;10.33;;;;;;;;5073303;27;45607;-51
2021/12/12 14:24:49;;;;;;;;;9.33;9.33;;;;;;;;5074051;27;45583;-49
2021/12/12 14:27:18;;;;;;;;;9.33;8.00;;;;;;;;5072718;27;46202;-53
2021/12/12 14:29:43;;;;;;;;;10.33;9.33;;;;;;;;5071759;27;45480;-50
2021/12/12 14:32:18;;;;;;;;;8.33;8.33;;;;;;;;5075688;27;45299;-49
2021/12/12 14:34:45;;;;;;;;;10.00;8.67;;;;;;;;5072198;27;45538;-49
2021/12/12 14:37:14;;;;;;;;;10.00;10.00;;;;;;;;5074376;27;46654;-54
2021/12/12 14:39:39;;;;;;;;;16.67;14.33;;;;;;;;5074367;28;45539;-52
2021/12/12 14:42:07;;;;;;;;;18.67;15.33;;;;;;;;5076467;28;45414;-49
2021/12/12 14:44:35;;;;;;;;;12.33;12.00;;;;;;;;5074462;27;45564;-49
2021/12/12 14:47:04;;;;;;;;;13.00;11.00;;;;;;;;5076345;27;45460;-49
2021/12/12 14:49:50;;;;;;;;;9.00;9.00;;;;;;;;5075392;27;45453;-47
2021/12/12 14:52:25;;;;;;;;;10.33;10.33;;;;;;;;5075508;28;45440;-45
2021/12/12 14:54:57;;;;;;;;;15.00;15.00;;;;;;;;5076991;27;45456;-50
2021/12/12 14:57:32;;;;;;;;;15.00;15.00;;;;;;;;5075643;28;46181;-47